Time;durP1;ratioP1;P1;durP2;ratioP2;P2;SDS_P1;SDS_P2;PMS_P1;PMS_P2;Temp;Humidity;BMP_temperature;BMP_pressure;BME280_temperature;BME280_humidity;BME280_pressure;Samples;Min_cycle;Max_cycle;Signal;HPM_P1;HPM_P2
2021/08/09 00:00:47;;;;;;;2.80;0.80;;;;;;;16.43;84.50;101049.84;5095804;28;20445;-71
2021/08/09 00:03:15;;;;;;;1.17;0.80;;;;;;;16.39;84.89;101066.09;5095849;28;20461;-71
2021/08/09 00:05:41;;;;;;;1.50;0.70;;;;;;;16.35;85.07;101059.66;5095663;28;20480;-71
2021/08/09 00:08:08;;;;;;;0.97;0.90;;;;;;;16.30;85.90;101062.59;5095637;28;20452;-71
2021/08/09 00:10:35;;;;;;;0.90;0.70;;;;;;;16.25;85.67;101062.78;5095986;28;20444;-71
2021/08/09 00:13:01;;;;;;;1.10;1.00;;;;;;;16.22;86.49;101066.16;5095462;28;20461;-71
2021/08/09 00:15:27;;;;;;;1.33;1.00;;;;;;;16.15;87.33;101067.44;5095491;28;20440;-71
2021/08/09 00:17:54;;;;;;;4.30;0.77;;;;;;;16.13;87.27;101071.66;5095399;28;20440;-71
2021/08/09 00:20:22;;;;;;;1.10;1.00;;;;;;;16.09;87.66;101074.22;5095415;28;20435;-71
2021/08/09 00:22:49;;;;;;;1.93;1.00;;;;;;;16.03;87.58;101075.53;5095290;28;20460;-70
2021/08/09 00:25:15;;;;;;;1.53;1.13;;;;;;;16.01;87.77;101063.31;5095240;28;20491;-71
2021/08/09 00:27:42;;;;;;;1.17;0.83;;;;;;;16.00;88.35;101064.44;5095332;28;20444;-71
2021/08/09 00:30:10;;;;;;;0.80;0.73;;;;;;;15.97;88.79;101065.88;5095100;28;20948;-71
2021/08/09 00:32:37;;;;;;;10.83;1.10;;;;;;;15.98;89.58;101061.22;5095006;28;20476;-71
2021/08/09 00:35:04;;;;;;;1.00;0.60;;;;;;;15.98;89.10;101063.97;5094882;28;20432;-71
2021/08/09 00:37:32;;;;;;;2.40;1.20;;;;;;;15.94;88.61;101069.28;5095116;28;20493;-71
2021/08/09 00:39:58;;;;;;;0.90;0.70;;;;;;;15.91;88.50;101071.88;5095013;28;20448;-71
2021/08/09 00:42:25;;;;;;;1.30;0.80;;;;;;;15.84;88.97;101073.16;5094944;28;20466;-71
2021/08/09 00:44:51;;;;;;;1.37;0.90;;;;;;;15.85;90.03;101077.50;5094204;28;20993;-71
2021/08/09 00:47:18;;;;;;;1.00;0.80;;;;;;;15.80;90.51;101077.66;5094916;28;20437;-71
2021/08/09 00:49:44;;;;;;;1.20;0.80;;;;;;;15.77;91.56;101077.53;5094883;28;20440;-71
2021/08/09 00:52:11;;;;;;;1.17;0.80;;;;;;;15.77;90.33;101067.41;5094694;28;20444;-71
2021/08/09 00:54:39;;;;;;;1.10;0.73;;;;;;;15.71;90.88;101068.66;5094461;28;20433;-72
2021/08/09 00:57:05;;;;;;;1.40;0.87;;;;;;;15.78;91.14;101077.19;5094703;28;20444;-70
2021/08/09 00:59:32;;;;;;;1.40;0.67;;;;;;;15.73;90.72;101071.91;5094342;28;20933;-71
2021/08/09 01:01:59;;;;;;;12.13;1.70;;;;;;;15.65;91.78;101080.91;5094273;28;20436;-70
2021/08/09 01:04:25;;;;;;;1.00;0.90;;;;;;;15.68;91.43;101072.06;5094468;28;20460;-70
2021/08/09 01:06:52;;;;;;;0.60;0.50;;;;;;;15.66;91.23;101074.31;5094535;28;20451;-70
2021/08/09 01:09:22;;;;;;;1.00;0.67;;;;;;;15.62;91.27;101073.31;5093846;28;20988;-70
2021/08/09 01:11:54;;;;;;;4.70;0.87;;;;;;;15.60;90.16;101072.84;5094446;28;20424;-73
2021/08/09 01:14:33;;;;;;;1.13;0.97;;;;;;;15.56;90.58;101074.63;5094727;28;20468;-71
2021/08/09 01:17:00;;;;;;;0.97;0.90;;;;;;;15.50;91.48;101079.44;5094334;28;20467;-71
2021/08/09 01:19:50;;;;;;;0.73;0.70;;;;;;;15.49;90.80;101080.53;5094009;28;20941;-70
2021/08/09 01:22:26;;;;;;;0.80;0.70;;;;;;;15.36;89.68;101084.25;5094253;28;20485;-70
2021/08/09 01:25:02;;;;;;;2.10;0.70;;;;;;;15.38;90.95;101088.28;5093716;28;21000;-70
2021/08/09 01:27:32;;;;;;;1.67;0.90;;;;;;;15.34;91.24;101089.22;5093870;28;20427;-70
2021/08/09 01:30:04;;;;;;;2.30;0.90;;;;;;;15.33;91.93;101091.16;5094341;28;20436;-70
2021/08/09 01:32:32;;;;;;;0.77;0.77;;;;;;;15.31;92.19;101082.47;5093846;28;20483;-71
2021/08/09 01:35:00;;;;;;;1.90;0.80;;;;;;;15.34;92.20;101098.22;5093972;28;20437;-71
2021/08/09 01:37:29;;;;;;;0.90;0.60;;;;;;;15.29;91.62;101101.09;5094189;28;20448;-71
2021/08/09 01:39:56;;;;;;;0.80;0.77;;;;;;;15.26;91.99;101098.22;5093930;28;20444;-71
2021/08/09 01:42:22;;;;;;;5.67;1.37;;;;;;;15.24;93.00;101103.19;5093820;28;20444;-70
2021/08/09 01:44:50;;;;;;;0.83;0.83;;;;;;;15.23;92.62;101104.31;5093745;28;20526;-71
2021/08/09 01:47:17;;;;;;;1.00;0.90;;;;;;;15.16;92.30;101104.78;5093473;28;20902;-70
2021/08/09 01:49:44;;;;;;;2.40;1.37;;;;;;;15.10;92.84;101108.81;5093517;28;20814;-70
2021/08/09 01:52:12;;;;;;;1.60;0.97;;;;;;;15.09;93.83;101101.72;5093602;28;20445;-70
2021/08/09 01:54:39;;;;;;;2.00;1.27;;;;;;;15.10;94.07;101106.06;5093362;28;20933;-71
2021/08/09 01:57:05;;;;;;;2.10;1.90;;;;;;;15.05;94.08;101107.03;5093626;28;20460;-71
2021/08/09 01:59:32;;;;;;;1.20;1.10;;;;;;;15.03;93.81;101108.47;5093613;28;20448;-71
2021/08/09 02:02:00;;;;;;;2.00;1.03;;;;;;;15.04;92.95;101110.06;5093192;28;20494;-71
2021/08/09 02:04:26;;;;;;;1.13;0.80;;;;;;;15.00;93.26;101111.81;5093436;28;20468;-70
2021/08/09 02:06:53;;;;;;;4.83;0.90;;;;;;;14.96;93.15;101119.03;5093481;28;20440;-71
2021/08/09 02:09:19;;;;;;;1.43;0.90;;;;;;;14.95;92.99;101117.41;5093443;28;20843;-71
2021/08/09 02:11:50;;;;;;;1.30;0.60;;;;;;;14.91;93.31;101113.72;5093087;28;20786;-71
2021/08/09 02:14:20;;;;;;;1.07;0.77;;;;;;;14.90;93.85;101123.81;5093044;28;20505;-71
2021/08/09 02:16:54;;;;;;;0.80;0.80;;;;;;;14.92;94.54;101126.22;5093530;28;20421;-70
2021/08/09 02:19:28;;;;;;;1.27;0.93;;;;;;;14.91;94.00;101119.16;5093345;28;20433;-72
2021/08/09 02:22:02;;;;;;;2.77;1.03;;;;;;;14.90;94.58;101126.56;5092601;28;20420;-71
2021/08/09 02:24:31;;;;;;;0.80;0.60;;;;;;;14.92;93.78;101129.78;5093200;28;20488;-72
2021/08/09 02:27:02;;;;;;;1.17;1.00;;;;;;;14.85;94.50;101132.97;5093125;28;20472;-72
2021/08/09 02:29:32;;;;;;;1.87;0.80;;;;;;;14.80;91.97;101127.66;5093029;28;20889;-71
2021/08/09 02:32:01;;;;;;;1.27;0.93;;;;;;;14.77;91.61;101133.72;5092860;28;20471;-71
2021/08/09 02:34:32;;;;;;;2.40;0.73;;;;;;;14.76;91.44;101143.03;5093077;28;20832;-71
2021/08/09 02:36:59;;;;;;;2.57;1.03;;;;;;;14.68;91.42;101140.28;5092833;28;20944;-71
2021/08/09 02:39:26;;;;;;;3.33;0.77;;;;;;;14.66;92.48;101137.88;5093142;28;20825;-71
2021/08/09 02:41:53;;;;;;;0.73;0.70;;;;;;;14.69;93.75;101142.69;5093051;28;20440;-72
2021/08/09 02:44:20;;;;;;;1.17;1.07;;;;;;;14.69;94.86;101148.13;5093027;28;20468;-72
2021/08/09 02:46:46;;;;;;;1.23;0.60;;;;;;;14.64;96.56;101151.00;5092654;28;20883;-72
2021/08/09 02:49:13;;;;;;;0.80;0.80;;;;;;;14.69;96.36;101147.34;5093141;28;20796;-72
2021/08/09 02:51:41;;;;;;;1.73;0.90;;;;;;;14.69;96.17;101148.13;5092900;28;20948;-72
2021/08/09 02:54:09;;;;;;;1.00;0.60;;;;;;;14.71;96.46;101165.00;5092974;28;20464;-72
2021/08/09 02:56:37;;;;;;;0.90;0.70;;;;;;;14.72;95.88;101158.41;5092714;28;20952;-71
2021/08/09 02:59:04;;;;;;;1.73;0.80;;;;;;;14.73;96.14;101159.22;5092979;28;20437;-71
2021/08/09 03:01:33;;;;;;;1.87;1.33;;;;;;;14.74;95.63;101158.09;5092971;28;20484;-72
2021/08/09 03:04:00;;;;;;;2.20;0.97;;;;;;;14.73;96.42;101153.78;5092564;28;20456;-72
2021/08/09 03:06:28;;;;;;;1.30;0.77;;;;;;;14.75;95.72;101154.28;5092521;28;21012;-71
2021/08/09 03:08:57;;;;;;;0.97;0.73;;;;;;;14.71;96.12;101156.81;5092872;28;20441;-72
2021/08/09 03:11:24;;;;;;;1.90;0.60;;;;;;;14.70;96.86;101162.56;5092880;28;20440;-72
2021/08/09 03:13:51;;;;;;;1.37;1.27;;;;;;;14.68;96.67;101162.91;5092735;28;20468;-72
2021/08/09 03:16:18;;;;;;;5.40;1.23;;;;;;;14.71;96.67;101161.47;5092469;28;20945;-72
2021/08/09 03:18:44;;;;;;;0.97;0.83;;;;;;;14.67;96.00;101161.28;5092492;28;20938;-72
2021/08/09 03:21:11;;;;;;;1.20;0.90;;;;;;;14.62;96.06;101161.44;5092737;28;20428;-72
2021/08/09 03:23:38;;;;;;;1.67;0.90;;;;;;;14.54;95.22;101168.44;5092640;28;20464;-71
2021/08/09 03:26:06;;;;;;;1.63;0.90;;;;;;;14.50;94.49;101172.91;5092383;28;21005;-71
2021/08/09 03:28:33;;;;;;;0.60;0.60;;;;;;;14.41;94.00;101172.03;5092811;28;20552;-71
2021/08/09 03:31:00;;;;;;;1.80;1.10;;;;;;;14.38;94.73;101167.19;5092637;28;20852;-71
2021/08/09 03:33:26;;;;;;;2.20;0.80;;;;;;;14.42;95.92;101170.09;5094922;28;20515;-72
2021/08/09 03:35:53;;;;;;;1.33;1.00;;;;;;;14.46;96.55;101168.38;5096304;28;20455;-72
2021/08/09 03:38:19;;;;;;;1.17;1.00;;;;;;;14.52;96.94;101167.13;5096262;28;20440;-73
2021/08/09 03:40:45;;;;;;;1.70;0.70;;;;;;;14.54;96.92;101167.66;5096173;28;20444;-73
2021/08/09 03:43:14;;;;;;;1.53;0.80;;;;;;;14.56;97.43;101162.66;5096385;28;20468;-70
2021/08/09 03:45:40;;;;;;;1.73;0.80;;;;;;;14.56;97.25;101177.09;5096069;28;20487;-70
2021/08/09 03:48:10;;;;;;;1.63;1.10;;;;;;;14.57;96.97;101169.75;5096109;28;20440;-71
2021/08/09 03:50:36;;;;;;;1.77;1.17;;;;;;;14.55;97.17;101175.50;5096048;28;20449;-70
2021/08/09 03:53:03;;;;;;;1.20;0.80;;;;;;;14.54;97.45;101179.34;5095956;28;20463;-70
2021/08/09 03:55:29;;;;;;;1.73;1.27;;;;;;;14.55;98.06;101180.94;5096010;28;20441;-70
2021/08/09 03:57:56;;;;;;;1.27;0.80;;;;;;;14.57;97.50;101177.94;5095874;28;20452;-70
2021/08/09 04:00:24;;;;;;;1.97;1.10;;;;;;;14.52;97.35;101178.03;5095795;28;20451;-70
2021/08/09 04:02:50;;;;;;;0.80;0.80;;;;;;;14.48;96.64;101174.31;5095718;28;20465;-70
2021/08/09 04:05:17;;;;;;;1.10;0.83;;;;;;;14.48;96.06;101171.59;5095428;28;20444;-70
2021/08/09 04:07:43;;;;;;;1.57;0.93;;;;;;;14.46;95.33;101165.66;5096019;28;20440;-70
2021/08/09 04:10:10;;;;;;;1.70;1.00;;;;;;;14.49;96.30;101165.84;5095702;28;20547;-70
2021/08/09 04:12:37;;;;;;;0.77;0.77;;;;;;;14.49;96.64;101170.50;5095662;28;20471;-70
2021/08/09 04:15:06;;;;;;;1.37;1.10;;;;;;;14.53;96.93;101180.47;5095604;28;20443;-70
2021/08/09 04:17:34;;;;;;;1.70;0.90;;;;;;;14.54;96.75;101173.09;5095573;28;20823;-70
2021/08/09 04:20:00;;;;;;;1.10;0.80;;;;;;;14.53;97.54;101176.94;5095527;28;20479;-70
2021/08/09 04:22:27;;;;;;;1.13;1.03;;;;;;;14.55;97.17;101174.69;5095406;28;20437;-69
2021/08/09 04:24:53;;;;;;;1.37;1.20;;;;;;;14.53;97.96;101179.69;5095435;28;20448;-70
2021/08/09 04:27:20;;;;;;;0.70;0.70;;;;;;;14.57;97.51;101183.38;5095268;28;20476;-70
2021/08/09 04:29:46;;;;;;;1.10;0.93;;;;;;;14.59;97.12;101181.13;5095600;28;20444;-70
2021/08/09 04:32:14;;;;;;;0.83;0.83;;;;;;;14.56;98.65;101179.03;5095275;28;20436;-70
2021/08/09 04:34:42;;;;;;;1.30;0.80;;;;;;;14.62;97.29;101177.78;5095333;28;20433;-69
2021/08/09 04:37:09;;;;;;;1.63;1.40;;;;;;;14.62;97.19;101181.31;5095206;28;20444;-69
2021/08/09 04:39:35;;;;;;;5.80;0.60;;;;;;;14.67;97.75;101179.56;5095523;28;20440;-69
2021/08/09 04:42:02;;;;;;;1.37;0.80;;;;;;;14.71;97.19;101167.72;5094824;28;20940;-69
2021/08/09 04:44:28;;;;;;;3.27;0.93;;;;;;;14.72;97.15;101172.06;5094274;28;20467;-69
2021/08/09 04:46:57;;;;;;;1.60;1.07;;;;;;;14.75;96.20;101168.72;5094925;28;20533;-69
2021/08/09 04:49:23;;;;;;;4.80;1.23;;;;;;;14.79;96.53;101175.16;5095067;28;20553;-69
2021/08/09 04:51:51;;;;;;;5.53;1.60;;;;;;;14.83;96.34;101180.75;5094580;28;20986;-69
2021/08/09 04:54:18;;;;;;;2.60;1.40;;;;;;;14.86;96.14;101175.47;5094537;28;20977;-69
2021/08/09 04:56:44;;;;;;;1.23;1.13;;;;;;;14.92;95.88;101180.78;5094487;28;20960;-70
2021/08/09 04:59:11;;;;;;;1.37;1.13;;;;;;;14.94;95.61;101184.03;5094727;28;20448;-70
2021/08/09 05:01:37;;;;;;;1.50;1.07;;;;;;;14.97;95.69;101178.75;5094774;28;20452;-70
2021/08/09 05:04:04;;;;;;;1.33;1.13;;;;;;;15.01;95.41;101173.47;5094552;28;20483;-70
2021/08/09 05:06:32;;;;;;;1.37;1.00;;;;;;;15.04;95.12;101183.72;5094619;28;20476;-70
2021/08/09 05:09:00;;;;;;;9.07;1.73;;;;;;;15.10;95.01;101186.00;5094593;28;20442;-70
2021/08/09 05:11:27;;;;;;;1.00;0.90;;;;;;;15.18;94.49;101181.66;5094582;28;20444;-70
2021/08/09 05:13:53;;;;;;;1.43;1.30;;;;;;;15.26;94.33;101188.28;5094440;28;20825;-69
2021/08/09 05:16:19;;;;;;;2.87;2.40;;;;;;;15.29;94.26;101185.72;5094390;28;20437;-69
2021/08/09 05:18:47;;;;;;;3.00;2.20;;;;;;;15.38;93.48;101177.56;5094429;28;20448;-69
2021/08/09 05:21:15;;;;;;;1.40;1.27;;;;;;;15.42;93.00;101183.19;5094406;28;20444;-70
2021/08/09 05:23:42;;;;;;;1.40;1.30;;;;;;;15.49;92.54;101184.31;5094232;28;20459;-70
2021/08/09 05:26:11;;;;;;;2.00;1.20;;;;;;;15.57;93.05;101185.44;5094187;28;20864;-70
2021/08/09 05:28:37;;;;;;;3.87;2.40;;;;;;;15.63;93.53;101190.44;5094292;28;20896;-69
2021/08/09 05:31:04;;;;;;;2.00;1.47;;;;;;;15.71;92.93;101198.97;5094132;28;20447;-70
2021/08/09 05:33:30;;;;;;;6.03;1.30;;;;;;;15.81;92.14;101204.94;5093906;28;20511;-71
2021/08/09 05:35:57;;;;;;;2.10;1.50;;;;;;;15.89;91.52;101206.88;5094966;28;20937;-74
2021/08/09 05:38:23;;;;;;;2.13;1.07;;;;;;;15.93;90.65;101211.69;5093999;28;20448;-74
2021/08/09 05:40:50;;;;;;;1.63;1.20;;;;;;;16.05;90.54;101212.66;5094011;28;20444;-69
2021/08/09 05:43:17;;;;;;;4.10;1.33;;;;;;;16.15;91.02;101214.25;5093894;28;20461;-68
2021/08/09 05:45:44;;;;;;;3.50;1.23;;;;;;;16.26;89.54;101226.47;5093726;28;20856;-69
2021/08/09 05:48:10;;;;;;;1.63;0.97;;;;;;;16.33;89.06;101229.50;5093859;28;20447;-69
2021/08/09 05:50:37;;;;;;;24.23;1.83;;;;;;;16.39;88.24;101224.69;5093841;28;20440;-69
2021/08/09 05:53:04;;;;;;;1.80;1.43;;;;;;;16.47;89.32;101233.97;5093490;28;20456;-69
2021/08/09 05:55:32;;;;;;;1.70;1.40;;;;;;;16.51;87.10;101232.19;5093076;28;20436;-69
2021/08/09 05:57:59;;;;;;;1.10;1.00;;;;;;;16.57;86.97;101225.44;5093539;28;20444;-69
2021/08/09 06:00:27;;;;;;;6.80;1.87;;;;;;;16.64;88.40;101231.19;5093619;28;20442;-69
2021/08/09 06:02:53;;;;;;;1.80;1.07;;;;;;;16.71;87.28;101228.78;5093570;28;20453;-69
2021/08/09 06:05:19;;;;;;;7.53;1.20;;;;;;;16.75;86.93;101235.22;5093695;28;20448;-69
2021/08/09 06:07:46;;;;;;;1.83;0.90;;;;;;;16.79;86.49;101230.72;5093725;28;20480;-69
2021/08/09 06:10:12;;;;;;;6.13;2.47;;;;;;;16.85;86.27;101240.34;5093538;28;20444;-69
2021/08/09 06:12:39;;;;;;;1.60;1.17;;;;;;;16.94;86.48;101240.31;5093433;28;20476;-69
2021/08/09 06:15:07;;;;;;;3.10;1.67;;;;;;;16.98;85.67;101241.25;5093440;28;20817;-69
2021/08/09 06:17:35;;;;;;;0.83;0.60;;;;;;;17.00;85.52;101238.19;5093408;28;20437;-69
2021/08/09 06:20:01;;;;;;;14.40;1.03;;;;;;;17.03;84.85;101235.59;5093272;28;20447;-69
2021/08/09 06:22:28;;;;;;;1.47;1.07;;;;;;;17.08;84.88;101240.88;5093528;28;20449;-70
2021/08/09 06:24:54;;;;;;;8.53;0.90;;;;;;;17.18;85.42;101247.97;5093279;28;20452;-70
2021/08/09 06:27:21;;;;;;;2.50;1.40;;;;;;;17.24;84.57;101249.38;5093196;28;20476;-71
2021/08/09 06:29:47;;;;;;;2.97;1.37;;;;;;;17.24;83.53;101254.03;5093225;28;20463;-70
2021/08/09 06:32:14;;;;;;;3.63;1.53;;;;;;;17.26;83.50;101252.56;5092737;28;20939;-71
2021/08/09 06:34:41;;;;;;;1.97;1.00;;;;;;;17.35;84.25;101252.53;5093609;28;20425;-71
2021/08/09 06:37:08;;;;;;;5.40;1.10;;;;;;;17.46;84.00;101259.25;5093294;28;20443;-71
2021/08/09 06:39:34;;;;;;;3.33;1.30;;;;;;;17.53;83.12;101255.97;5093009;28;20436;-70
2021/08/09 06:42:03;;;;;;;9.10;1.80;;;;;;;17.59;82.96;101251.91;5092912;28;20433;-70
2021/08/09 06:44:31;;;;;;;10.57;1.47;;;;;;;17.64;81.97;101247.03;5092989;28;20468;-70
2021/08/09 06:46:57;;;;;;;9.10;1.30;;;;;;;17.70;81.93;101253.13;5093015;28;20498;-70
2021/08/09 06:49:23;;;;;;;1.63;1.40;;;;;;;17.76;81.79;101254.56;5092938;28;20436;-71
2021/08/09 06:51:51;;;;;;;30.07;2.40;;;;;;;17.84;81.04;101258.38;5092660;28;20468;-71
2021/08/09 06:54:20;;;;;;;38.37;2.40;;;;;;;17.91;81.10;101258.66;5093124;28;20464;-71
2021/08/09 06:56:46;;;;;;;14.40;1.80;;;;;;;17.99;80.97;101252.31;5093012;28;20473;-71
2021/08/09 06:59:12;;;;;;;3.80;1.23;;;;;;;18.10;80.98;101255.44;5093056;28;20447;-71
2021/08/09 07:01:39;;;;;;;8.03;1.43;;;;;;;18.15;79.59;101258.78;5092970;28;20451;-71
2021/08/09 07:04:05;;;;;;;2.57;1.33;;;;;;;18.14;78.83;101259.91;5092912;28;20804;-71
2021/08/09 07:06:32;;;;;;;2.10;0.97;;;;;;;18.17;79.68;101265.88;5092932;28;20890;-71
2021/08/09 07:09:02;;;;;;;2.17;1.53;;;;;;;18.18;79.74;101267.47;5096792;28;20448;-72
2021/08/09 07:11:29;;;;;;;1.93;1.30;;;;;;;18.17;80.17;101261.19;5096963;28;20439;-71
2021/08/09 07:13:55;;;;;;;4.60;1.20;;;;;;;18.23;80.36;101261.78;5096750;28;20483;-71
2021/08/09 07:16:24;;;;;;;1.53;1.13;;;;;;;18.26;79.70;101253.69;5096945;28;20447;-71
2021/08/09 07:18:51;;;;;;;2.90;1.50;;;;;;;18.26;79.57;101261.91;5096754;28;20448;-71
2021/08/09 07:21:18;;;;;;;1.97;1.00;;;;;;;18.31;81.45;101269.13;5096766;28;20440;-71
2021/08/09 07:23:44;;;;;;;1.50;1.40;;;;;;;18.28;80.18;101273.38;5096596;28;20463;-71
2021/08/09 07:26:12;;;;;;;9.30;1.70;;;;;;;18.35;80.65;101265.38;5096489;28;20444;-76
2021/08/09 07:28:38;;;;;;;3.50;1.27;;;;;;;18.48;79.92;101263.47;5096614;28;20444;-71
2021/08/09 07:31:05;;;;;;;2.33;1.33;;;;;;;18.63;80.46;101262.03;5096548;28;20448;-74
2021/08/09 07:33:31;;;;;;;1.30;1.20;;;;;;;18.76;78.73;101260.94;5096126;28;20484;-74
2021/08/09 07:36:00;;;;;;;2.70;1.53;;;;;;;18.81;78.07;101268.97;5096617;28;20456;-74
2021/08/09 07:38:27;;;;;;;10.20;2.30;;;;;;;18.94;78.66;101266.25;5096369;28;20463;-73
2021/08/09 07:40:53;;;;;;;2.23;1.20;;;;;;;18.99;77.10;101272.34;5096348;28;20459;-74
2021/08/09 07:43:21;;;;;;;7.73;2.23;;;;;;;19.03;76.57;101272.44;5096447;28;20464;-76
2021/08/09 07:45:47;;;;;;;6.30;1.60;;;;;;;19.07;76.07;101265.91;5096239;28;20444;-73
2021/08/09 07:48:14;;;;;;;5.73;1.43;;;;;;;19.12;75.68;101259.41;5096156;28;20484;-73
2021/08/09 07:50:41;;;;;;;8.00;2.07;;;;;;;19.21;75.85;101268.34;5096178;28;20440;-74
2021/08/09 07:53:08;;;;;;;1.60;1.20;;;;;;;19.32;79.15;101255.75;5096294;28;20475;-74
2021/08/09 07:55:35;;;;;;;23.60;1.90;;;;;;;19.38;76.79;101262.59;5095949;28;20440;-74
2021/08/09 07:58:01;;;;;;;1.13;1.00;;;;;;;19.41;75.19;101269.38;5096018;28;20444;-74
2021/08/09 08:00:29;;;;;;;20.50;2.13;;;;;;;19.38;74.81;101265.34;5095897;28;20444;-74
2021/08/09 08:02:55;;;;;;;4.73;1.57;;;;;;;19.37;75.40;101262.97;5095785;28;20452;-74
2021/08/09 08:05:22;;;;;;;5.97;1.53;;;;;;;19.44;76.25;101270.66;5095884;28;20441;-74
2021/08/09 08:07:48;;;;;;;5.60;1.77;;;;;;;19.51;76.13;101268.09;5095716;28;20487;-74
2021/08/09 08:10:15;;;;;;;11.40;1.50;;;;;;;19.53;75.58;101269.38;5095799;28;20440;-74
2021/08/09 08:12:41;;;;;;;9.73;1.93;;;;;;;19.52;75.09;101273.28;5095638;28;20468;-74
2021/08/09 08:15:08;;;;;;;1.73;1.43;;;;;;;19.51;75.61;101268.91;5095444;28;20938;-74
2021/08/09 08:17:36;;;;;;;2.80;1.33;;;;;;;19.53;81.37;101268.56;5095646;28;20442;-74
2021/08/09 08:20:04;;;;;;;11.07;2.40;;;;;;;19.58;80.06;101268.34;5094365;28;20441;-74
2021/08/09 08:22:30;;;;;;;19.50;1.70;;;;;;;19.63;77.84;101270.88;5095358;28;20460;-72
2021/08/09 08:24:57;;;;;;;6.83;1.60;;;;;;;19.68;75.99;101273.38;5095379;28;20927;-72
2021/08/09 08:27:23;;;;;;;1.77;1.50;;;;;;;19.73;75.26;101270.41;5095371;28;20538;-73
2021/08/09 08:29:50;;;;;;;5.83;1.73;;;;;;;19.76;76.48;101283.47;5095404;28;20452;-72
2021/08/09 08:32:17;;;;;;;1.57;1.20;;;;;;;19.76;76.92;101279.91;5095113;28;20441;-72
2021/08/09 08:34:44;;;;;;;7.70;1.73;;;;;;;19.80;75.91;101280.81;5095028;28;20857;-72
2021/08/09 08:37:11;;;;;;;10.33;1.63;;;;;;;19.87;76.56;101281.81;5094980;28;20444;-72
2021/08/09 08:39:38;;;;;;;1.53;1.40;;;;;;;19.95;76.52;101288.34;5095288;28;20437;-72
2021/08/09 08:42:04;;;;;;;11.50;2.03;;;;;;;20.01;76.85;101286.16;5095152;28;20448;-72
2021/08/09 08:44:31;;;;;;;1.00;1.00;;;;;;;20.09;76.06;101285.22;5094734;28;21011;-73
2021/08/09 08:46:58;;;;;;;9.57;1.53;;;;;;;20.10;74.65;101292.34;5094992;28;20554;-72
2021/08/09 08:49:27;;;;;;;3.50;1.30;;;;;;;20.14;74.60;101294.03;5094638;28;20945;-72
2021/08/09 08:51:55;;;;;;;1.97;1.70;;;;;;;20.04;75.09;101291.75;5094963;28;20433;-72
2021/08/09 08:54:21;;;;;;;1.87;1.27;;;;;;;20.07;74.33;101293.03;5094556;28;20460;-73
2021/08/09 08:56:48;;;;;;;1.97;0.97;;;;;;;20.10;74.13;101295.09;5074231;28;20965;-72
2021/08/09 08:59:16;;;;;;;5.30;1.33;;;;;;;20.13;77.58;101297.13;5074668;28;20434;-72
2021/08/09 09:01:44;;;;;;;8.07;1.93;;;;;;;20.15;75.51;101294.84;5074818;28;20452;-72
2021/08/09 09:04:27;;;;;;;3.47;1.37;;;;;;;20.07;75.30;101298.53;5074152;28;20850;-73
2021/08/09 09:07:04;;;;;;;1.67;1.57;;;;;;;20.07;73.36;101298.53;5074392;28;20516;-72
2021/08/09 09:09:32;;;;;;;2.20;1.43;;;;;;;20.14;72.85;101301.47;5074491;28;20425;-73
2021/08/09 09:12:00;;;;;;;13.10;1.53;;;;;;;20.20;72.67;101302.84;5074314;28;20476;-72
2021/08/09 09:14:29;;;;;;;4.67;1.93;;;;;;;20.28;74.21;101299.16;5073893;28;20994;-72
2021/08/09 09:16:56;;;;;;;9.40;1.47;;;;;;;20.36;72.37;101305.63;5074258;28;20446;-72
2021/08/09 09:19:34;;;;;;;2.30;1.77;;;;;;;20.37;73.33;101301.75;5074262;28;20449;-72
2021/08/09 09:22:04;;;;;;;2.80;1.60;;;;;;;20.41;74.06;101297.94;5073877;28;20906;-72
2021/08/09 09:24:31;;;;;;;13.20;1.97;;;;;;;20.56;72.97;101310.19;5074025;28;20465;-72
2021/08/09 09:27:01;;;;;;;1.53;1.30;;;;;;;20.62;73.00;101316.22;5074031;28;20436;-72
2021/08/09 09:29:34;;;;;;;2.03;1.33;;;;;;;20.76;73.26;101308.38;5073806;28;20437;-72
2021/08/09 09:32:13;;;;;;;3.83;1.57;;;;;;;20.88;71.30;101308.28;5073431;28;20426;-73
2021/08/09 09:34:47;;;;;;;2.60;1.60;;;;;;;21.04;71.89;101307.53;5074056;28;20434;-73
2021/08/09 09:37:23;;;;;;;2.00;1.27;;;;;;;21.10;70.15;101304.13;5073931;28;20460;-73
2021/08/09 09:39:49;;;;;;;2.30;1.87;;;;;;;21.10;69.80;101301.38;5073899;28;20515;-73
2021/08/09 09:42:16;;;;;;;3.20;1.80;;;;;;;21.19;72.96;101306.72;5073476;28;20942;-70
2021/08/09 09:44:44;;;;;;;1.50;1.40;;;;;;;21.46;73.08;101307.00;5073745;28;20464;-70
2021/08/09 09:47:19;;;;;;;1.37;1.27;;;;;;;21.54;68.94;101301.28;5073640;28;20441;-70
2021/08/09 09:49:46;;;;;;;3.03;1.43;;;;;;;21.73;70.33;101300.53;5073681;28;20437;-74
2021/08/09 09:52:32;;;;;;;9.90;1.80;;;;;;;21.90;71.27;101304.88;5073884;28;20434;-75
2021/08/09 09:55:02;;;;;;;5.13;1.67;;;;;;;22.00;70.25;101304.31;5073701;28;20425;-74
2021/08/09 09:57:28;;;;;;;1.70;1.43;;;;;;;22.08;68.98;101308.00;5073618;28;20433;-74
2021/08/09 09:59:57;;;;;;;9.37;2.20;;;;;;;21.96;68.96;101306.19;5073492;28;20449;-75
2021/08/09 10:02:23;;;;;;;3.63;1.30;;;;;;;21.94;66.23;101310.47;5073490;28;20469;-74
2021/08/09 10:04:50;;;;;;;2.63;1.40;;;;;;;21.99;67.25;101308.22;5073415;28;20444;-74
2021/08/09 10:07:19;;;;;;;6.30;1.63;;;;;;;22.02;67.69;101306.69;5073107;28;20938;-74
2021/08/09 10:09:49;;;;;;;2.80;1.50;;;;;;;22.02;66.47;101309.47;5073421;28;20548;-75
2021/08/09 10:12:18;;;;;;;6.80;1.83;;;;;;;21.84;65.13;101314.59;5073431;28;20464;-74
2021/08/09 10:14:47;;;;;;;1.93;1.50;;;;;;;21.80;65.40;101308.97;5073406;28;20452;-74
2021/08/09 10:17:13;;;;;;;23.70;1.83;;;;;;;21.76;65.08;101318.34;5073312;28;20445;-74
2021/08/09 10:19:40;;;;;;;3.97;1.03;;;;;;;21.78;66.26;101321.53;5073415;28;20449;-74
2021/08/09 10:22:07;;;;;;;2.40;1.37;;;;;;;21.83;65.97;101327.59;5073330;28;20452;-74
2021/08/09 10:24:37;;;;;;;3.10;1.50;;;;;;;21.89;66.62;101311.53;5073244;28;20464;-74
2021/08/09 10:27:05;;;;;;;1.77;1.40;;;;;;;21.90;64.90;101322.22;5073312;28;20797;-74
2021/08/09 10:29:31;;;;;;;3.97;1.23;;;;;;;21.98;63.16;101316.88;5073250;28;20492;-73
2021/08/09 10:32:19;;;;;;;1.83;1.10;;;;;;;22.12;65.14;101308.91;5073238;28;20443;-74
2021/08/09 10:34:45;;;;;;;9.30;1.80;;;;;;;22.27;64.22;101308.06;5073193;28;20856;-74
2021/08/09 10:37:13;;;;;;;2.90;1.47;;;;;;;22.38;63.98;101308.28;5073167;28;20441;-74
2021/08/09 10:39:54;;;;;;;2.53;1.17;;;;;;;22.48;59.87;101313.19;5073231;28;20441;-74
2021/08/09 10:42:30;;;;;;;14.03;1.60;;;;;;;22.60;62.72;101310.28;5074003;28;20434;-74
2021/08/09 10:44:57;;;;;;;1.93;1.23;;;;;;;22.78;63.46;101313.38;5077252;28;20443;-74
2021/08/09 10:47:54;;;;;;;3.80;1.50;;;;;;;22.88;61.68;101317.50;5077117;28;20445;-74
2021/08/09 10:50:54;;;;;;;1.83;0.97;;;;;;;23.07;58.19;101322.25;5072916;28;20461;-74
2021/08/09 10:53:46;;;;;;;7.80;1.60;;;;;;;23.15;56.78;101310.09;5077081;28;20465;-74
2021/08/09 10:56:47;;;;;;;2.03;1.03;;;;;;;23.30;57.73;101303.66;5076652;28;20452;-74
2021/08/09 10:59:49;;;;;;;6.03;1.27;;;;;;;23.49;54.65;101297.25;5076906;28;20506;-74
2021/08/09 11:02:21;;;;;;;1.67;1.00;;;;;;;23.48;55.39;101305.91;5034519;28;20438;-74
2021/08/09 11:05:25;;;;;;;3.87;1.20;;;;;;;23.51;57.30;101302.41;5034438;28;20470;-74
2021/08/09 11:08:40;;;;;;;7.23;1.83;;;;;;;23.67;55.03;101303.88;5065599;28;20488;-74
2021/08/09 11:11:08;;;;;;;9.00;1.40;;;;;;;23.84;55.08;101315.56;5076688;28;20436;-74
2021/08/09 11:14:13;;;;;;;7.50;1.27;;;;;;;23.84;54.26;101307.28;5076620;28;20572;-74
2021/08/09 11:16:40;;;;;;;2.07;1.47;;;;;;;23.96;54.37;101306.25;5076507;28;20433;-74
2021/08/09 11:19:07;;;;;;;2.03;1.20;;;;;;;24.42;55.98;101293.00;5076589;28;20456;-74
2021/08/09 11:21:34;;;;;;;1.53;1.07;;;;;;;24.96;53.85;101304.63;5076482;28;20448;-74
2021/08/09 11:24:01;;;;;;;1.87;1.17;;;;;;;25.21;50.09;101297.38;5076293;28;20453;-74
2021/08/09 11:26:32;;;;;;;1.00;0.90;;;;;;;25.42;52.08;101303.09;5076435;28;20467;-74
2021/08/09 11:29:00;;;;;;;4.00;1.00;;;;;;;25.70;49.75;101304.47;5076328;28;20523;-74
2021/08/09 11:31:27;;;;;;;8.27;1.10;;;;;;;25.58;46.22;101299.22;5076317;28;20433;-72